createdAt,value
2024-01-20T00:02:01.789Z,78.05
2024-01-20T00:04:28.450Z,82.05
2024-01-20T00:06:55.316Z,76.75
2024-01-20T00:09:24.595Z,82.28
2024-01-20T00:11:53.223Z,86.18
2024-01-20T00:14:20.655Z,79.00
2024-01-20T00:16:47.397Z,82.30
2024-01-20T00:19:14.093Z,73.47
2024-01-20T00:21:40.940Z,84.30
2024-01-20T00:24:08.547Z,81.53
2024-01-20T00:26:35.594Z,86.72
2024-01-20T00:29:02.696Z,87.65
2024-01-20T00:31:30.013Z,87.22
2024-01-20T00:33:56.753Z,76.75
2024-01-20T00:36:23.732Z,81.22
2024-01-20T00:38:50.533Z,85.97
2024-01-20T00:41:20.538Z,83.60
2024-01-20T00:43:49.231Z,86.30
2024-01-20T00:46:15.807Z,88.88
2024-01-20T00:48:42.394Z,93.35
2024-01-20T00:51:10.008Z,96.03
2024-01-20T00:53:36.624Z,85.82
2024-01-20T00:56:03.387Z,94.38
2024-01-20T00:58:30.109Z,96.20
2024-01-20T01:00:56.884Z,81.97
2024-01-20T01:03:23.849Z,95.68
2024-01-20T01:05:50.658Z,91.65
2024-01-20T01:08:17.337Z,84.28
2024-01-20T01:10:44.020Z,81.35
2024-01-20T01:13:10.696Z,89.35
2024-01-20T01:15:37.296Z,87.90
2024-01-20T01:18:04.198Z,92.18
2024-01-20T01:20:31.044Z,78.18
2024-01-20T01:22:57.649Z,81.85
2024-01-20T01:25:24.307Z,90.53
2024-01-20T01:27:51.247Z,80.32
2024-01-20T01:30:17.867Z,73.57
2024-01-20T01:32:44.580Z,74.43
2024-01-20T01:35:11.281Z,76.28
2024-01-20T01:37:37.910Z,65.72
2024-01-20T01:40:05.255Z,71.75
2024-01-20T01:42:31.880Z,65.53
2024-01-20T01:44:58.546Z,60.33
2024-01-20T01:47:25.231Z,65.40
2024-01-20T01:49:52.061Z,60.97
2024-01-20T01:52:19.324Z,54.05
2024-01-20T01:54:46.358Z,58.40
2024-01-20T01:57:15.044Z,56.17
2024-01-20T01:59:42.112Z,53.85
2024-01-20T02:02:09.383Z,57.88
2024-01-20T02:04:36.023Z,51.85
2024-01-20T02:07:02.870Z,60.53
2024-01-20T02:09:30.770Z,52.88
2024-01-20T02:11:58.665Z,50.78
2024-01-20T02:14:25.663Z,52.65
2024-01-20T02:16:52.554Z,49.38
2024-01-20T02:19:19.187Z,45.30
2024-01-20T02:21:45.801Z,50.58
2024-01-20T02:24:13.331Z,48.65
2024-01-20T02:26:40.152Z,44.85
2024-01-20T02:29:06.852Z,46.33
2024-01-20T02:31:33.472Z,48.45
2024-01-20T02:34:01.514Z,49.15
2024-01-20T02:36:28.397Z,42.85
2024-01-20T02:38:55.168Z,41.90
2024-01-20T02:41:21.796Z,43.67
2024-01-20T02:43:48.409Z,45.55
2024-01-20T02:46:15.222Z,42.00
2024-01-20T02:48:42.258Z,43.92
2024-01-20T02:51:08.942Z,38.97
2024-01-20T02:53:35.569Z,39.38
2024-01-20T02:56:02.173Z,40.55
2024-01-20T02:58:28.737Z,40.05
2024-01-20T03:00:55.492Z,44.40
2024-01-20T03:03:22.323Z,42.53
2024-01-20T03:05:49.057Z,41.15
2024-01-20T03:08:16.050Z,43.47
2024-01-20T03:10:42.635Z,34.55
2024-01-20T03:13:09.412Z,34.38
2024-01-20T03:15:36.035Z,42.58
2024-01-20T03:18:03.349Z,35.55
2024-01-20T03:20:29.935Z,36.40
2024-01-20T03:22:56.536Z,34.65
2024-01-20T03:25:23.133Z,34.25
2024-01-20T03:27:49.689Z,37.05
2024-01-20T03:30:16.998Z,34.90
2024-01-20T03:32:43.650Z,33.50
2024-01-20T03:35:10.955Z,32.65
2024-01-20T03:37:37.525Z,37.83
2024-01-20T03:40:04.586Z,39.63
2024-01-20T03:42:31.453Z,42.53
2024-01-20T03:44:58.192Z,36.85
2024-01-20T03:47:24.831Z,34.05
2024-01-20T03:49:51.519Z,37.63
2024-01-20T03:52:18.251Z,34.10
2024-01-20T03:54:44.805Z,37.75
2024-01-20T03:57:11.550Z,33.28
2024-01-20T03:59:38.173Z,41.67
2024-01-20T04:02:05.034Z,40.70
2024-01-20T04:04:32.979Z,39.80
2024-01-20T04:06:59.666Z,35.85
2024-01-20T04:09:26.395Z,36.63
2024-01-20T04:11:53.122Z,41.67
2024-01-20T04:14:19.744Z,34.78
2024-01-20T04:16:46.435Z,38.05
2024-01-20T04:19:13.392Z,42.28
2024-01-20T04:21:40.808Z,40.97
2024-01-20T04:24:07.454Z,41.17
2024-01-20T04:26:34.021Z,44.70
2024-01-20T04:29:00.588Z,47.90
2024-01-20T04:31:27.198Z,57.10
2024-01-20T04:33:57.170Z,49.85
2024-01-20T04:36:23.857Z,52.00
2024-01-20T04:38:50.455Z,48.42
2024-01-20T04:41:17.241Z,50.33
2024-01-20T04:43:43.767Z,46.53
2024-01-20T04:46:10.364Z,59.03
2024-01-20T04:48:37.048Z,59.33
2024-01-20T04:51:04.158Z,59.60
2024-01-20T04:53:30.780Z,61.47
2024-01-20T04:55:57.357Z,61.13
2024-01-20T04:58:23.943Z,60.55
2024-01-20T05:00:50.658Z,63.08
2024-01-20T05:03:17.573Z,67.00
2024-01-20T05:05:44.310Z,60.47
2024-01-20T05:08:10.949Z,59.65
2024-01-20T05:10:37.523Z,60.47
2024-01-20T05:13:05.090Z,63.75
2024-01-20T05:15:32.745Z,62.45
2024-01-20T05:17:59.737Z,69.32
2024-01-20T05:20:26.428Z,65.15
2024-01-20T05:22:53.149Z,54.20
2024-01-20T05:25:19.731Z,58.70
2024-01-20T05:27:46.406Z,68.25
2024-01-20T05:30:13.784Z,61.97
2024-01-20T05:32:42.112Z,65.25
2024-01-20T05:35:11.193Z,59.35
2024-01-20T05:37:37.829Z,64.85
2024-01-20T05:40:06.015Z,72.57
2024-01-20T05:42:33.023Z,68.05
2024-01-20T05:45:01.123Z,59.88
2024-01-20T05:47:27.986Z,66.20
2024-01-20T05:49:54.576Z,70.93
2024-01-20T05:52:21.182Z,58.53
2024-01-20T05:54:47.732Z,67.90
2024-01-20T05:57:14.326Z,63.75
2024-01-20T05:59:40.954Z,66.10
2024-01-20T06:02:08.319Z,67.30
2024-01-20T06:04:34.946Z,61.33
2024-01-20T06:07:01.806Z,64.28
2024-01-20T06:09:28.414Z,67.57
2024-01-20T06:11:55.158Z,68.38
2024-01-20T06:14:22.639Z,67.85
2024-01-20T06:16:49.446Z,71.43
2024-01-20T06:19:16.722Z,67.18
2024-01-20T06:21:44.630Z,71.40
2024-01-20T06:24:11.374Z,71.28
2024-01-20T06:26:37.948Z,69.55
2024-01-20T06:29:04.674Z,71.88
2024-01-20T06:31:31.268Z,65.22
2024-01-20T06:33:58.096Z,71.35
2024-01-20T06:36:27.808Z,74.20
2024-01-20T06:38:54.841Z,71.40
2024-01-20T06:41:21.585Z,77.75
2024-01-20T06:43:48.212Z,67.90
2024-01-20T06:46:14.944Z,70.78
2024-01-20T06:48:41.878Z,73.72
2024-01-20T06:51:10.661Z,70.88
2024-01-20T06:53:37.312Z,73.07
2024-01-20T06:56:04.082Z,72.82
2024-01-20T06:58:30.646Z,67.07
2024-01-20T07:00:57.453Z,69.45
2024-01-20T07:03:24.536Z,73.32
2024-01-20T07:05:51.189Z,81.32
2024-01-20T07:08:17.831Z,74.28
2024-01-20T07:10:44.420Z,75.65
2024-01-20T07:13:11.258Z,72.43
2024-01-20T07:15:37.898Z,74.22
2024-01-20T07:18:05.579Z,69.28
2024-01-20T07:20:32.555Z,70.43
2024-01-20T07:22:59.358Z,77.25
2024-01-20T07:25:26.220Z,71.25
2024-01-20T07:27:52.843Z,70.25
2024-01-20T07:30:19.443Z,76.35
2024-01-20T07:32:46.108Z,74.57
2024-01-20T07:35:13.012Z,78.88
2024-01-20T07:37:39.962Z,68.53
2024-01-20T07:40:07.264Z,75.82
2024-01-20T07:42:35.614Z,71.35
2024-01-20T07:45:03.730Z,67.95
2024-01-20T07:47:30.489Z,75.72
2024-01-20T07:49:57.126Z,78.15
2024-01-20T07:52:23.829Z,72.63
2024-01-20T07:54:50.421Z,77.88
2024-01-20T07:57:17.204Z,81.97
2024-01-20T07:59:43.845Z,75.80
2024-01-20T08:02:10.479Z,76.03
2024-01-20T08:04:37.199Z,73.47
2024-01-20T08:07:04.744Z,86.57
2024-01-20T08:09:31.425Z,80.95
2024-01-20T08:11:58.087Z,77.05
2024-01-20T08:14:24.681Z,73.75
2024-01-20T08:16:52.196Z,73.20
2024-01-20T08:19:18.837Z,74.82
2024-01-20T08:21:45.514Z,74.20
2024-01-20T08:24:12.292Z,73.00
2024-01-20T08:26:39.018Z,76.00
2024-01-20T08:29:05.798Z,71.38
2024-01-20T08:31:32.467Z,71.72
2024-01-20T08:33:59.264Z,72.40
2024-01-20T08:36:27.029Z,71.00
2024-01-20T08:38:53.727Z,76.93
2024-01-20T08:41:20.651Z,73.55
2024-01-20T08:43:48.397Z,73.10
2024-01-20T08:46:15.032Z,70.72
2024-01-20T08:48:41.917Z,62.13
2024-01-20T08:51:08.745Z,73.85
2024-01-20T08:53:35.481Z,69.57
2024-01-20T08:56:02.676Z,65.47
2024-01-20T08:58:30.811Z,80.70
2024-01-20T09:00:57.784Z,65.47
2024-01-20T09:03:24.631Z,63.17
2024-01-20T09:05:51.426Z,66.82
2024-01-20T09:08:18.044Z,68.43
2024-01-20T09:10:44.939Z,60.17
2024-01-20T09:13:11.552Z,59.70
2024-01-20T09:15:38.293Z,58.60
2024-01-20T09:18:07.684Z,58.72
2024-01-20T09:20:34.619Z,57.70
2024-01-20T09:23:01.703Z,61.47
2024-01-20T09:25:28.914Z,53.45
2024-01-20T09:27:55.564Z,55.15
2024-01-20T09:30:22.801Z,59.53
2024-01-20T09:32:49.987Z,51.92
2024-01-20T09:35:16.879Z,53.22
2024-01-20T09:37:43.620Z,53.60
2024-01-20T09:40:11.234Z,49.95
2024-01-20T09:42:38.081Z,47.92
2024-01-20T09:45:05.682Z,41.70
2024-01-20T09:47:32.303Z,43.42
2024-01-20T09:49:59.130Z,44.22
2024-01-20T09:52:30.533Z,45.30
2024-01-20T09:55:19.657Z,37.13
2024-01-20T09:57:46.828Z,40.67
2024-01-20T10:00:18.083Z,37.25
2024-01-20T10:02:48.087Z,36.83
2024-01-20T10:05:15.730Z,28.00
2024-01-20T10:07:43.488Z,36.47
2024-01-20T10:10:21.219Z,30.20
2024-01-20T10:12:55.590Z,31.67
2024-01-20T10:15:30.778Z,29.55
2024-01-20T10:18:00.727Z,29.98
2024-01-20T10:20:32.594Z,29.55
2024-01-20T10:23:04.490Z,28.75
2024-01-20T10:25:31.283Z,27.92
2024-01-20T10:27:58.195Z,27.92
2024-01-20T10:30:26.271Z,26.55
2024-01-20T10:33:04.255Z,28.30
2024-01-20T10:35:36.557Z,31.92
2024-01-20T10:38:06.104Z,24.48
2024-01-20T10:40:34.776Z,28.15
2024-01-20T10:43:08.949Z,28.60
2024-01-20T10:46:03.807Z,27.40
2024-01-20T10:48:35.487Z,25.05
2024-01-20T10:51:08.770Z,25.02
2024-01-20T10:53:36.656Z,28.52
2024-01-20T10:56:04.079Z,23.75
2024-01-20T10:58:44.486Z,28.30
2024-01-20T11:01:12.792Z,27.50
2024-01-20T11:03:40.165Z,22.23
2024-01-20T11:06:07.090Z,24.05
2024-01-20T11:08:33.908Z,21.83
2024-01-20T11:11:00.857Z,25.92
2024-01-20T11:13:28.255Z,22.92
2024-01-20T11:15:56.632Z,18.63
2024-01-20T11:18:24.614Z,22.35
2024-01-20T11:21:02.625Z,21.15
2024-01-20T11:23:30.361Z,20.40
2024-01-20T11:25:58.469Z,20.77
2024-01-20T11:28:35.064Z,19.83
2024-01-20T11:31:03.605Z,19.33
2024-01-20T11:33:31.726Z,17.95
2024-01-20T11:35:58.638Z,20.15
2024-01-20T11:38:25.446Z,19.92
2024-01-20T11:41:00.380Z,16.65
2024-01-20T11:43:27.524Z,18.10
2024-01-20T11:45:59.200Z,15.50
2024-01-20T11:48:27.135Z,21.45
2024-01-20T11:50:54.398Z,18.27
2024-01-20T11:53:21.696Z,18.13
2024-01-20T11:55:56.548Z,19.23
2024-01-20T11:58:23.639Z,19.35
2024-01-20T12:00:54.577Z,18.75
2024-01-20T12:03:21.989Z,15.55
2024-01-20T12:05:49.209Z,19.15
2024-01-20T12:08:16.258Z,15.18
2024-01-20T12:10:43.974Z,16.67
2024-01-20T12:13:17.284Z,17.77
2024-01-20T12:15:44.947Z,19.30
2024-01-20T12:18:11.771Z,16.05
2024-01-20T12:20:38.789Z,14.77
2024-01-20T12:23:05.637Z,15.60
2024-01-20T12:25:33.644Z,16.90
2024-01-20T12:28:00.703Z,17.17
2024-01-20T12:30:30.666Z,15.80
2024-01-20T12:32:58.283Z,12.75
2024-01-20T12:35:25.224Z,13.25
2024-01-20T12:37:51.840Z,18.27
2024-01-20T12:40:19.767Z,14.00
2024-01-20T12:42:46.497Z,14.05
2024-01-20T12:45:14.341Z,14.57
2024-01-20T12:47:40.977Z,15.95
2024-01-20T12:50:08.235Z,18.85
2024-01-20T12:52:35.299Z,15.85
2024-01-20T12:55:02.779Z,14.55
2024-01-20T12:57:29.390Z,13.90
2024-01-20T12:59:56.002Z,15.75
2024-01-20T13:02:22.633Z,11.43
2024-01-20T13:04:50.772Z,13.60
2024-01-20T13:07:19.743Z,16.42
2024-01-20T13:09:47.049Z,10.90
2024-01-20T13:12:13.718Z,11.77
2024-01-20T13:14:40.493Z,15.75
2024-01-20T13:17:07.376Z,12.88
2024-01-20T13:19:34.167Z,14.35
2024-01-20T13:22:00.826Z,12.95
2024-01-20T13:24:27.487Z,14.35
2024-01-20T13:26:54.230Z,13.65
2024-01-20T13:29:21.470Z,12.50
2024-01-20T13:31:48.098Z,12.00
2024-01-20T13:34:14.853Z,14.10
2024-01-20T13:36:41.613Z,12.90
2024-01-20T13:39:08.999Z,11.93
2024-01-20T13:41:35.860Z,13.02
2024-01-20T13:44:03.528Z,12.20
2024-01-20T13:46:30.179Z,12.10
2024-01-20T13:48:57.013Z,11.27
2024-01-20T13:51:25.805Z,11.65
2024-01-20T13:53:52.423Z,11.27
2024-01-20T13:56:19.026Z,16.23
2024-01-20T13:58:45.730Z,17.45
2024-01-20T14:01:12.341Z,11.15
2024-01-20T14:03:39.197Z,13.10
2024-01-20T14:06:07.038Z,11.07
2024-01-20T14:08:34.479Z,10.32
2024-01-20T14:11:01.152Z,9.95
2024-01-20T14:13:27.803Z,16.38
2024-01-20T14:15:55.445Z,9.55
2024-01-20T14:18:22.291Z,14.07
2024-01-20T14:20:49.148Z,12.80
2024-01-20T14:23:18.532Z,14.15
2024-01-20T14:25:47.000Z,9.57
2024-01-20T14:28:13.644Z,13.57
2024-01-20T14:30:42.118Z,11.93
2024-01-20T14:33:09.566Z,10.75
2024-01-20T14:35:36.301Z,13.57
2024-01-20T14:38:03.116Z,10.05
2024-01-20T14:40:29.663Z,11.38
2024-01-20T14:42:56.322Z,10.00
2024-01-20T14:45:23.377Z,9.13
2024-01-20T14:47:50.340Z,12.95
2024-01-20T14:50:17.721Z,11.77
2024-01-20T14:52:44.484Z,14.13
2024-01-20T14:55:11.933Z,9.30
2024-01-20T14:57:38.566Z,8.85
2024-01-20T15:00:08.925Z,10.80
2024-01-20T15:02:35.779Z,12.82
2024-01-20T15:05:02.774Z,13.27
2024-01-20T15:07:31.622Z,7.32
2024-01-20T15:12:25.692Z,8.85
2024-01-20T15:14:52.926Z,8.07
2024-01-20T15:17:19.612Z,7.30
2024-01-20T15:19:46.542Z,12.63
2024-01-20T15:22:14.140Z,12.93
2024-01-20T15:24:40.846Z,15.70
2024-01-20T15:27:07.694Z,10.27
2024-01-20T15:29:34.942Z,10.05
2024-01-20T15:32:03.171Z,10.48
2024-01-20T15:34:29.879Z,8.63
2024-01-20T15:36:56.571Z,17.52
2024-01-20T15:39:23.270Z,13.68
2024-01-20T15:41:50.040Z,11.48
2024-01-20T15:44:16.897Z,12.13
2024-01-20T15:46:43.533Z,14.02
2024-01-20T15:49:11.127Z,10.93
2024-01-20T15:51:38.877Z,9.43
2024-01-20T15:54:05.667Z,11.85
2024-01-20T15:56:32.318Z,10.52
2024-01-20T15:59:00.182Z,14.02
2024-01-20T16:01:26.895Z,13.40
2024-01-20T16:03:53.667Z,10.38
2024-01-20T16:06:20.565Z,12.48
2024-01-20T16:08:47.219Z,13.35
2024-01-20T16:11:13.835Z,17.05
2024-01-20T16:13:40.413Z,17.35
2024-01-20T16:16:07.833Z,15.32
2024-01-20T16:18:34.569Z,18.92
2024-01-20T16:21:04.821Z,15.45
2024-01-20T16:23:31.571Z,11.43
2024-01-20T16:25:58.157Z,13.70
2024-01-20T16:28:24.852Z,12.27
2024-01-20T16:30:54.313Z,13.55
2024-01-20T16:33:23.041Z,11.68
2024-01-20T16:35:50.116Z,14.65
2024-01-20T16:38:16.968Z,12.20
2024-01-20T16:40:43.647Z,11.20
2024-01-20T16:43:12.382Z,12.25
2024-01-20T16:45:39.012Z,12.05
2024-01-20T16:48:06.339Z,10.80
2024-01-20T16:50:32.990Z,12.90
2024-01-20T16:53:03.668Z,9.95
2024-01-20T16:55:30.687Z,11.75
2024-01-20T16:57:59.181Z,12.18
2024-01-20T17:00:26.167Z,8.90
2024-01-20T17:02:53.122Z,14.57
2024-01-20T17:05:19.830Z,10.65
2024-01-20T17:07:46.954Z,10.38
2024-01-20T17:10:14.612Z,13.13
2024-01-20T17:12:41.831Z,14.07
2024-01-20T17:15:09.773Z,13.95
2024-01-20T17:17:37.064Z,11.88
2024-01-20T17:20:05.007Z,11.30
2024-01-20T17:22:31.696Z,20.27
2024-01-20T17:24:58.496Z,14.88
2024-01-20T17:27:25.277Z,15.98
2024-01-20T17:29:52.235Z,15.63
2024-01-20T17:32:19.106Z,25.83
2024-01-20T17:34:45.801Z,28.60
2024-01-20T17:37:13.401Z,27.13
2024-01-20T17:39:40.375Z,33.97
2024-01-20T17:42:07.872Z,45.28
2024-01-20T17:44:35.205Z,43.97
2024-01-20T17:47:02.000Z,42.67
2024-01-20T17:49:28.925Z,46.28
2024-01-20T17:51:55.718Z,38.85
2024-01-20T17:54:28.497Z,49.63
2024-01-20T17:56:55.642Z,37.45
2024-01-20T17:59:22.819Z,34.08
2024-01-20T18:01:49.557Z,39.13
2024-01-20T18:04:16.425Z,32.70
2024-01-20T18:06:43.421Z,28.83
2024-01-20T18:09:35.492Z,29.92
2024-01-20T18:12:02.818Z,26.88
2024-01-20T18:14:29.992Z,32.13
2024-01-20T18:16:56.719Z,29.67
2024-01-20T18:19:23.424Z,29.95
2024-01-20T18:21:50.270Z,33.42
2024-01-20T18:24:17.114Z,30.17
2024-01-20T18:26:45.108Z,27.60
2024-01-20T18:29:13.117Z,28.23
2024-01-20T18:31:39.830Z,29.60
2024-01-20T18:34:06.503Z,27.98
2024-01-20T18:36:33.472Z,27.17
2024-01-20T18:39:00.195Z,27.48
2024-01-20T18:41:27.465Z,20.85
2024-01-20T18:43:54.239Z,22.95
2024-01-20T18:46:20.924Z,19.88
2024-01-20T18:48:47.816Z,21.52
2024-01-20T18:51:14.516Z,18.17
2024-01-20T18:53:42.727Z,20.15
2024-01-20T18:56:09.366Z,15.07
2024-01-20T18:58:36.087Z,13.38
2024-01-20T19:01:04.471Z,15.43
2024-01-20T19:03:31.185Z,19.80
2024-01-20T19:05:57.888Z,16.33
2024-01-20T19:08:24.544Z,22.02
2024-01-20T19:10:51.385Z,18.98
2024-01-20T19:13:18.390Z,18.75
2024-01-20T19:15:47.211Z,17.08
2024-01-20T19:18:15.006Z,13.10
2024-01-20T19:20:41.815Z,17.63
2024-01-20T19:23:08.725Z,18.42
2024-01-20T19:25:35.476Z,14.73
2024-01-20T19:28:02.120Z,15.15
2024-01-20T19:30:29.322Z,16.27
2024-01-20T19:32:56.307Z,16.70
2024-01-20T19:35:24.346Z,13.95
2024-01-20T19:37:50.980Z,18.10
2024-01-20T19:40:17.757Z,16.63
2024-01-20T19:42:44.587Z,17.30
2024-01-20T19:45:11.450Z,16.38
2024-01-20T19:47:39.232Z,15.07
2024-01-20T19:50:07.353Z,15.23
2024-01-20T19:52:38.557Z,17.25
2024-01-20T19:55:06.520Z,15.43
2024-01-20T19:57:33.252Z,15.63
2024-01-20T20:00:02.979Z,16.45
2024-01-20T20:02:38.794Z,22.60
2024-01-20T20:05:05.774Z,27.02
2024-01-20T20:07:32.557Z,27.10
2024-01-20T20:09:59.330Z,29.63
2024-01-20T20:12:26.125Z,24.00
2024-01-20T20:14:52.931Z,19.70
2024-01-20T20:17:21.260Z,19.52
2024-01-20T20:19:48.002Z,14.45
2024-01-20T20:22:14.745Z,14.38
2024-01-20T20:24:43.482Z,20.20
2024-01-20T20:29:37.728Z,15.27
2024-01-20T20:32:04.930Z,17.45
2024-01-20T20:34:31.574Z,22.05
2024-01-20T20:36:58.339Z,19.40
2024-01-20T20:39:25.144Z,22.40
2024-01-20T20:41:54.095Z,21.13
2024-01-20T20:44:20.900Z,19.95
2024-01-20T20:46:47.765Z,20.58
2024-01-20T20:49:14.893Z,19.67
2024-01-20T20:51:42.660Z,15.73
2024-01-20T20:54:09.299Z,15.05
2024-01-20T20:56:36.050Z,17.83
2024-01-20T20:59:02.703Z,17.08
2024-01-20T21:01:29.393Z,13.40
2024-01-20T21:03:56.212Z,14.70
2024-01-20T21:06:23.005Z,13.57
2024-01-20T21:08:49.808Z,13.73
2024-01-20T21:11:17.089Z,14.52
2024-01-20T21:13:43.789Z,12.40
2024-01-20T21:16:10.563Z,15.80
2024-01-20T21:18:37.294Z,14.93
2024-01-20T21:21:04.278Z,20.25
2024-01-20T21:23:31.445Z,15.13
2024-01-20T21:25:58.261Z,13.05
2024-01-20T21:28:25.443Z,13.52
2024-01-20T21:30:54.769Z,13.57
2024-01-20T21:33:22.639Z,12.52
2024-01-20T21:35:50.721Z,11.55
2024-01-20T21:38:17.672Z,18.63
2024-01-20T21:40:45.691Z,18.50
2024-01-20T21:43:12.483Z,14.60
2024-01-20T21:45:39.195Z,14.18
2024-01-20T21:48:06.495Z,16.50
2024-01-20T21:50:33.285Z,14.85
2024-01-20T21:53:00.246Z,16.88
2024-01-20T21:55:26.971Z,16.08
2024-01-20T21:57:56.328Z,15.20
2024-01-20T22:00:24.554Z,18.15
2024-01-20T22:02:51.226Z,11.65
2024-01-20T22:05:18.388Z,10.80
2024-01-20T22:07:46.290Z,16.52
2024-01-20T22:10:13.608Z,12.20
2024-01-20T22:12:40.207Z,8.57
2024-01-20T22:15:07.687Z,13.80
2024-01-20T22:17:34.386Z,10.90
2024-01-20T22:20:02.381Z,18.02
2024-01-20T22:22:30.915Z,15.95
2024-01-20T22:24:57.683Z,13.53
2024-01-20T22:27:24.386Z,15.27
2024-01-20T22:29:51.193Z,13.10
2024-01-20T22:32:18.237Z,13.45
2024-01-20T22:34:44.912Z,13.13
2024-01-20T22:37:11.539Z,11.55
2024-01-20T22:39:38.267Z,11.35
2024-01-20T22:42:05.183Z,11.18
2024-01-20T22:44:31.860Z,11.90
2024-01-20T22:46:58.830Z,15.50
2024-01-20T22:49:25.673Z,12.50
2024-01-20T22:51:52.562Z,16.95
2024-01-20T22:54:23.226Z,13.55
2024-01-20T22:56:49.862Z,14.98
2024-01-20T22:59:16.505Z,12.40
2024-01-20T23:01:43.633Z,16.10
2024-01-20T23:04:10.367Z,16.48
2024-01-20T23:06:37.062Z,10.80
2024-01-20T23:09:05.236Z,11.65
2024-01-20T23:11:31.975Z,11.38
2024-01-20T23:13:59.080Z,13.55
2024-01-20T23:16:25.661Z,10.45
2024-01-20T23:18:53.775Z,9.45
2024-01-20T23:21:22.350Z,12.30
2024-01-20T23:23:49.062Z,11.17
2024-01-20T23:26:16.217Z,9.13
2024-01-20T23:28:44.429Z,10.82
2024-01-20T23:31:12.344Z,9.60
2024-01-20T23:33:39.514Z,11.38
2024-01-20T23:36:07.070Z,11.38
2024-01-20T23:38:33.854Z,14.10
2024-01-20T23:41:00.816Z,9.45
2024-01-20T23:43:27.395Z,11.02
2024-01-20T23:45:54.226Z,14.25
2024-01-20T23:48:20.866Z,12.88
2024-01-20T23:50:47.627Z,11.88
2024-01-20T23:53:14.327Z,12.73
2024-01-20T23:55:41.173Z,12.48
2024-01-20T23:58:07.717Z,11.90
